Time;durP1;ratioP1;P1;durP2;ratioP2;P2;SDS_P1;SDS_P2;PMS_P1;PMS_P2;Temp;Humidity;BMP_temperature;BMP_pressure;BME280_temperature;BME280_humidity;BME280_pressure;Samples;Min_cycle;Max_cycle;Signal;HPM_P1;HPM_P2
2020/12/03 00:00:47;;;;;;;;;;;;;;;-2.21;91.26;92384.91;1066430;55;20169;-83
2020/12/03 00:01:47;;;;;;;;;;;;;;;-2.24;92.50;92372.53;1066308;55;20185;-84
2020/12/03 00:02:48;;;;;;;;;;;;;;;-2.29;92.19;92381.44;1064254;55;20184;-83
2020/12/03 00:03:50;;;;;;;;;;;;;;;-2.26;91.54;92377.38;1064085;55;20622;-87
2020/12/03 00:04:50;;;;;;;;;;;;;;;-2.30;92.54;92384.41;1066385;55;20161;-83
2020/12/03 00:06:09;;;;;;;;;;;;;;;-2.24;93.17;92382.25;1068372;55;20567;-82
2020/12/03 00:07:10;;;;;;;;;;;;;;;-2.21;91.32;92384.91;1067657;55;20172;-83
2020/12/03 00:08:11;;;;;;;;;;;;;;;-2.28;91.35;92379.59;1066300;55;20184;-83
2020/12/03 00:09:13;;;;;;;;;;;;;;;-2.15;90.45;92380.13;1066327;55;20185;-84
2020/12/03 00:10:14;;;;;;;;;;;;;;;-2.19;90.99;92381.97;1066235;55;20642;-83
2020/12/03 00:11:15;;;;;;;;;;;;;;;-2.16;90.26;92382.00;1064086;55;20190;-82
2020/12/03 00:12:15;;;;;;;;;;;;;;;-2.30;91.38;92377.31;1066292;55;20161;-83
2020/12/03 00:13:21;;;;;;;;;;;;;;;-2.22;91.21;92372.94;1064154;55;20255;-83
2020/12/03 00:14:21;;;;;;;;;;;;;;;-2.13;90.73;92375.31;1062142;55;20166;-84
2020/12/03 00:15:22;;;;;;;;;;;;;;;-2.26;91.39;92374.00;1066003;55;21172;-83
2020/12/03 00:16:23;;;;;;;;;;;;;;;-2.39;92.07;92363.75;1068278;55;20172;-83
2020/12/03 00:17:23;;;;;;;;;;;;;;;-2.39;91.72;92368.22;1064120;55;20678;-84
2020/12/03 00:18:29;;;;;;;;;;;;;;;-2.45;92.91;92364.41;1064361;55;20158;-83
2020/12/03 00:19:29;;;;;;;;;;;;;;;-2.50;93.77;92362.06;1064270;55;20180;-82
2020/12/03 00:20:30;;;;;;;;;;;;;;;-2.46;93.89;92363.63;1064065;55;20165;-82
2020/12/03 00:21:33;;;;;;;;;;;;;;;-2.43;93.70;92357.69;1064088;55;20582;-84
2020/12/03 00:22:34;;;;;;;;;;;;;;;-2.45;93.75;92354.69;1066332;55;20647;-82
2020/12/03 00:23:35;;;;;;;;;;;;;;;-2.42;93.53;92371.53;1066254;55;20359;-83
2020/12/03 00:24:36;;;;;;;;;;;;;;;-2.38;92.77;92360.00;1064360;55;20189;-83
2020/12/03 00:25:36;;;;;;;;;;;;;;;-2.45;89.68;92370.38;1066292;55;20153;-86
2020/12/03 00:26:38;;;;;;;;;;;;;;;-2.53;89.12;92363.53;1066178;55;20154;-82
2020/12/03 00:27:38;;;;;;;;;;;;;;;-2.48;88.15;92367.72;1066318;55;20178;-82
2020/12/03 00:28:42;;;;;;;;;;;;;;;-2.42;89.34;92366.28;1068438;55;20176;-83
2020/12/03 00:29:43;;;;;;;;;;;;;;;-2.50;89.08;92365.47;1066320;55;20220;-83
2020/12/03 00:30:47;;;;;;;;;;;;;;;-2.46;87.09;92368.84;1066176;55;20158;-82
2020/12/03 00:31:48;;;;;;;;;;;;;;;-2.41;87.40;92365.22;1066520;55;20235;-82
2020/12/03 00:32:49;;;;;;;;;;;;;;;-2.38;87.89;92361.88;1068392;55;20165;-82
2020/12/03 00:33:50;;;;;;;;;;;;;;;-2.37;88.18;92369.38;1068484;55;20670;-83
2020/12/03 00:34:51;;;;;;;;;;;;;;;-2.45;88.30;92372.25;1066305;55;20172;-85
2020/12/03 00:35:51;;;;;;;;;;;;;;;-2.50;89.21;92360.22;1068507;55;20164;-82
2020/12/03 00:36:52;;;;;;;;;;;;;;;-2.50;89.91;92365.47;1068383;55;20180;-87
2020/12/03 00:37:53;;;;;;;;;;;;;;;-2.42;88.67;92368.91;1066202;55;20247;-83
2020/12/03 00:38:53;;;;;;;;;;;;;;;-2.51;86.82;92363.94;1066222;55;20161;-82
2020/12/03 00:39:54;;;;;;;;;;;;;;;-2.43;86.79;92359.56;1066158;55;20181;-82
2020/12/03 00:40:54;;;;;;;;;;;;;;;-2.53;89.60;92361.69;1066147;55;20172;-82
2020/12/03 00:41:55;;;;;;;;;;;;;;;-2.49;87.60;92360.97;1066255;55;20181;-83
2020/12/03 00:42:56;;;;;;;;;;;;;;;-2.55;89.88;92361.28;1064156;55;20169;-82
2020/12/03 00:43:56;;;;;;;;;;;;;;;-2.44;88.92;92365.91;1061981;55;20181;-84
2020/12/03 00:44:57;;;;;;;;;;;;;;;-2.41;86.39;92360.72;1062868;55;20626;-82
2020/12/03 00:45:57;;;;;;;;;;;;;;;-2.42;87.02;92361.06;1066239;55;20184;-84
2020/12/03 00:46:58;;;;;;;;;;;;;;;-2.41;85.22;92357.38;1064210;55;20157;-84
2020/12/03 00:47:58;;;;;;;;;;;;;;;-2.45;85.95;92359.91;1064005;55;20162;-82
2020/12/03 00:48:59;;;;;;;;;;;;;;;-2.56;86.73;92361.63;1064203;55;20162;-81
2020/12/03 00:49:59;;;;;;;;;;;;;;;-2.47;85.98;92361.38;1064001;55;20150;-82
2020/12/03 00:51:00;;;;;;;;;;;;;;;-2.61;87.33;92361.91;1066260;55;20176;-82
2020/12/03 00:52:00;;;;;;;;;;;;;;;-2.59;86.85;92357.84;1064030;55;20157;-84
2020/12/03 00:53:02;;;;;;;;;;;;;;;-2.59;86.59;92351.84;1064132;55;20189;-83
2020/12/03 00:54:03;;;;;;;;;;;;;;;-2.55;87.61;92347.44;1063964;55;20177;-82
2020/12/03 00:55:04;;;;;;;;;;;;;;;-2.55;88.73;92348.22;1064077;55;20157;-83
2020/12/03 00:56:04;;;;;;;;;;;;;;;-2.62;89.08;92352.56;1066276;55;20181;-82
2020/12/03 00:57:07;;;;;;;;;;;;;;;-2.53;88.14;92355.69;1063441;55;20665;-82
2020/12/03 00:58:08;;;;;;;;;;;;;;;-2.59;87.46;92342.16;1067315;55;20274;-82
2020/12/03 00:59:08;;;;;;;;;;;;;;;-2.69;87.93;92345.34;1066263;55;20638;-83
2020/12/03 01:00:12;;;;;;;;;;;;;;;-2.63;89.82;92340.59;1065951;55;21133;-83
2020/12/03 01:01:16;;;;;;;;;;;;;;;-2.66;89.59;92336.81;1063348;56;20154;-82
2020/12/03 01:02:16;;;;;;;;;;;;;;;-2.71;90.25;92339.75;1061698;55;20159;-82
2020/12/03 01:03:17;;;;;;;;;;;;;;;-2.74;91.47;92340.44;1063564;55;20165;-82
2020/12/03 01:04:17;;;;;;;;;;;;;;;-2.77;91.05;92341.13;1063694;55;20259;-83
2020/12/03 01:05:18;;;;;;;;;;;;;;;-2.67;89.20;92337.94;1061377;56;20190;-82
2020/12/03 01:06:19;;;;;;;;;;;;;;;-2.67;87.39;92343.16;1061438;56;20158;-85
2020/12/03 01:07:19;;;;;;;;;;;;;;;-2.71;89.09;92346.84;1065649;55;20169;-82
2020/12/03 01:08:20;;;;;;;;;;;;;;;-2.76;88.09;92340.03;1063501;55;20242;-83
2020/12/03 01:09:21;;;;;;;;;;;;;;;-2.80;90.03;92345.22;1059261;56;20564;-83
2020/12/03 01:10:26;;;;;;;;;;;;;;;-2.90;90.20;92350.25;1061361;56;20162;-84
2020/12/03 01:11:26;;;;;;;;;;;;;;;-2.80;92.14;92355.66;1065923;55;20157;-82
2020/12/03 01:12:27;;;;;;;;;;;;;;;-2.82;92.80;92349.28;1067946;55;20183;-83
2020/12/03 01:13:27;;;;;;;;;;;;;;;-2.86;89.98;92346.59;1065627;55;20192;-82
2020/12/03 01:14:28;;;;;;;;;;;;;;;-2.82;89.76;92347.41;1063583;55;20169;-83
2020/12/03 01:15:29;;;;;;;;;;;;;;;-2.83;87.35;92342.53;1063515;55;20180;-84
2020/12/03 01:16:30;;;;;;;;;;;;;;;-2.81;88.11;92340.31;1061436;55;20162;-82
2020/12/03 01:17:31;;;;;;;;;;;;;;;-2.80;87.48;92339.97;1063536;55;20169;-82
2020/12/03 01:18:31;;;;;;;;;;;;;;;-2.85;89.62;92348.13;1063533;55;20615;-83
2020/12/03 01:19:32;;;;;;;;;;;;;;;-2.85;91.63;92337.66;1063528;55;20165;-83
2020/12/03 01:20:33;;;;;;;;;;;;;;;-2.84;91.89;92341.03;1063670;55;20173;-83
2020/12/03 01:21:34;;;;;;;;;;;;;;;-2.96;90.38;92338.59;1063521;55;20209;-82
2020/12/03 01:22:35;;;;;;;;;;;;;;;-3.01;89.56;92341.50;1063648;55;20173;-83
2020/12/03 01:23:35;;;;;;;;;;;;;;;-2.92;89.16;92339.41;1065775;55;20193;-81
2020/12/03 01:24:36;;;;;;;;;;;;;;;-2.95;89.07;92334.88;1065769;55;20162;-82
2020/12/03 01:25:37;;;;;;;;;;;;;;;-3.04;89.83;92333.25;1063498;55;20648;-83
2020/12/03 01:26:37;;;;;;;;;;;;;;;-3.01;90.10;92331.81;1063557;55;20184;-82
2020/12/03 01:27:38;;;;;;;;;;;;;;;-3.07;90.25;92328.75;1065756;55;20180;-82
2020/12/03 01:28:40;;;;;;;;;;;;;;;-3.07;90.46;92328.75;1065738;55;20173;-82
2020/12/03 01:29:41;;;;;;;;;;;;;;;-3.05;89.72;92328.38;1063516;55;20180;-81
2020/12/03 01:30:41;;;;;;;;;;;;;;;-2.97;90.11;92332.63;1061427;56;20248;-81
2020/12/03 01:31:42;;;;;;;;;;;;;;;-2.99;90.02;92321.00;1063481;55;20181;-84
2020/12/03 01:32:43;;;;;;;;;;;;;;;-2.98;90.10;92325.87;1063529;55;20570;-82
2020/12/03 01:33:43;;;;;;;;;;;;;;;-3.00;91.45;92328.06;1063376;55;20161;-82
2020/12/03 01:34:44;;;;;;;;;;;;;;;-2.95;93.30;92324.41;1061308;56;20154;-82
2020/12/03 01:35:45;;;;;;;;;;;;;;;-3.00;92.30;92316.88;1063437;55;20177;-83
2020/12/03 01:36:49;;;;;;;;;;;;;;;-3.04;92.71;92322.78;1065705;55;20229;-82
2020/12/03 01:37:50;;;;;;;;;;;;;;;-3.15;90.92;92313.28;1063496;55;20731;-83
2020/12/03 01:38:51;;;;;;;;;;;;;;;-3.19;91.10;92320.31;1063589;55;20194;-83
2020/12/03 01:39:51;;;;;;;;;;;;;;;-3.21;91.28;92320.66;1065462;55;20556;-81
2020/12/03 01:40:52;;;;;;;;;;;;;;;-3.15;91.39;92321.13;1063438;55;20158;-83
2020/12/03 01:41:52;;;;;;;;;;;;;;;-3.21;91.31;92320.66;1061246;56;20150;-83
2020/12/03 01:42:54;;;;;;;;;;;;;;;-3.25;91.51;92314.59;1061163;56;20158;-82
2020/12/03 01:43:54;;;;;;;;;;;;;;;-3.28;91.80;92312.72;1065625;55;20567;-82
2020/12/03 01:44:56;;;;;;;;;;;;;;;-3.29;91.98;92316.44;1063459;55;20153;-82
2020/12/03 01:46:00;;;;;;;;;;;;;;;-3.26;92.34;92314.97;1059271;56;20150;-82
2020/12/03 01:47:01;;;;;;;;;;;;;;;-3.26;92.26;92310.50;1059182;56;20253;-83
2020/12/03 01:48:02;;;;;;;;;;;;;;;-3.26;91.62;92305.25;1061212;56;20182;-82
2020/12/03 01:49:04;;;;;;;;;;;;;;;-3.31;92.28;92314.16;1063508;55;20763;-82
2020/12/03 01:50:05;;;;;;;;;;;;;;;-3.36;92.39;92305.84;1062531;55;20161;-83
2020/12/03 01:51:09;;;;;;;;;;;;;;;-3.23;91.95;92306.44;1065646;55;20263;-82
2020/12/03 01:52:10;;;;;;;;;;;;;;;-3.19;91.88;92310.63;1064660;55;21031;-81
2020/12/03 01:53:13;;;;;;;;;;;;;;;-3.20;92.30;92314.34;1064741;55;20608;-83
2020/12/03 01:54:16;;;;;;;;;;;;;;;-3.17;92.50;92303.16;1063498;55;20161;-83
2020/12/03 01:55:17;;;;;;;;;;;;;;;-3.22;92.31;92308.69;1061497;56;20186;-82
2020/12/03 01:56:24;;;;;;;;;;;;;;;-3.18;91.71;92303.53;1061461;56;20181;-83
2020/12/03 01:57:34;;;;;;;;;;;;;;;-3.13;91.56;92300.63;1061420;55;21124;-83
2020/12/03 01:58:38;;;;;;;;;;;;;;;-3.07;90.13;92297.38;1063668;55;20190;-82
2020/12/03 01:59:41;;;;;;;;;;;;;;;-3.05;90.77;92295.16;1067765;55;20714;-83
2020/12/03 02:00:41;;;;;;;;;;;;;;;-3.06;90.61;92292.91;1067594;55;20165;-82
2020/12/03 02:01:42;;;;;;;;;;;;;;;-3.13;91.30;92295.37;1063452;55;21064;-83
2020/12/03 02:02:45;;;;;;;;;;;;;;;-3.11;91.62;92293.19;1067590;55;20164;-82
2020/12/03 02:03:47;;;;;;;;;;;;;;;-3.18;92.04;92296.44;1067705;55;20157;-86
2020/12/03 02:05:06;;;;;;;;;;;;;;;-3.16;92.29;92291.62;1067836;55;20192;-83
2020/12/03 02:06:07;;;;;;;;;;;;;;;-3.07;92.14;92286.91;1066771;55;20157;-82
2020/12/03 02:07:09;;;;;;;;;;;;;;;-3.08;91.92;92284.62;1065515;55;20161;-82
2020/12/03 02:08:10;;;;;;;;;;;;;;;-3.07;92.32;92286.91;1065534;55;20659;-83
2020/12/03 02:09:12;;;;;;;;;;;;;;;-3.05;91.98;92284.69;1061378;56;21110;-84
2020/12/03 02:10:14;;;;;;;;;;;;;;;-3.14;92.24;92286.03;1063402;55;20182;-82
2020/12/03 02:11:15;;;;;;;;;;;;;;;-3.13;92.45;92288.28;1065419;55;20216;-83
2020/12/03 02:12:16;;;;;;;;;;;;;;;-3.16;92.06;92293.47;1063261;55;20193;-84
2020/12/03 02:13:16;;;;;;;;;;;;;;;-3.08;91.61;92285.38;1063293;55;20189;-83
2020/12/03 02:14:17;;;;;;;;;;;;;;;-3.11;91.92;92290.59;1065514;55;20150;-83
2020/12/03 02:15:19;;;;;;;;;;;;;;;-3.23;92.52;92281.06;1065073;55;20577;-82
2020/12/03 02:16:19;;;;;;;;;;;;;;;-3.26;92.49;92276.53;1065528;55;20165;-81
2020/12/03 02:17:20;;;;;;;;;;;;;;;-3.11;92.26;92275.66;1063293;55;20618;-83
2020/12/03 02:18:21;;;;;;;;;;;;;;;-3.16;91.53;92272.56;1063246;55;20150;-83
2020/12/03 02:19:32;;;;;;;;;;;;;;;-3.22;92.55;92269.50;1067849;55;20184;-83
2020/12/03 02:20:32;;;;;;;;;;;;;;;-3.18;92.56;92282.63;1065447;55;20708;-82
2020/12/03 02:21:33;;;;;;;;;;;;;;;-3.14;93.15;92278.97;1065596;55;20254;-83
2020/12/03 02:22:33;;;;;;;;;;;;;;;-3.13;92.48;92277.84;1069858;55;20558;-82
2020/12/03 02:23:34;;;;;;;;;;;;;;;-3.24;93.36;92279.56;1065466;55;20585;-81
2020/12/03 02:24:36;;;;;;;;;;;;;;;-3.24;93.12;92274.31;1063419;55;20321;-83
2020/12/03 02:25:36;;;;;;;;;;;;;;;-3.19;93.34;92268.06;1063524;55;20174;-83
2020/12/03 02:26:37;;;;;;;;;;;;;;;-3.12;93.59;92268.16;1067325;55;20665;-83
2020/12/03 02:27:39;;;;;;;;;;;;;;;-3.13;93.35;92269.25;1063592;55;20169;-83
2020/12/03 02:28:39;;;;;;;;;;;;;;;-3.11;93.17;92269.66;1065742;55;20158;-82
2020/12/03 02:29:40;;;;;;;;;;;;;;;-3.10;93.30;92276.41;1065511;55;20582;-85
2020/12/03 02:30:40;;;;;;;;;;;;;;;-3.07;93.72;92268.62;1065609;55;20629;-85
2020/12/03 02:31:41;;;;;;;;;;;;;;;-3.07;93.86;92273.09;1065475;55;20185;-82
2020/12/03 02:32:41;;;;;;;;;;;;;;;-3.12;93.14;92270.75;1063642;55;20548;-84
2020/12/03 02:33:42;;;;;;;;;;;;;;;-3.04;93.14;92262.66;1065409;55;20162;-84
2020/12/03 02:34:43;;;;;;;;;;;;;;;-3.05;92.60;92263.78;1065359;55;20172;-83
2020/12/03 02:35:44;;;;;;;;;;;;;;;-2.98;92.84;92262.41;1063495;55;20262;-82
2020/12/03 02:36:55;;;;;;;;;;;;;;;-2.96;92.30;92266.16;1065620;55;20157;-82
2020/12/03 02:37:55;;;;;;;;;;;;;;;-3.04;93.14;92261.91;1066052;55;20201;-84
2020/12/03 02:38:56;;;;;;;;;;;;;;;-3.04;93.02;92261.91;1063593;55;20154;-82
2020/12/03 02:39:56;;;;;;;;;;;;;;;-2.99;93.19;92263.47;1063457;55;20162;-82
2020/12/03 02:40:57;;;;;;;;;;;;;;;-2.89;92.47;92270.75;1065714;55;20242;-83
2020/12/03 02:41:59;;;;;;;;;;;;;;;-2.96;92.54;92263.53;1065540;55;20213;-83
2020/12/03 02:42:59;;;;;;;;;;;;;;;-3.00;93.80;92261.97;1065494;55;20181;-83
2020/12/03 02:44:00;;;;;;;;;;;;;;;-3.02;93.54;92261.59;1067779;55;20177;-83
2020/12/03 02:45:00;;;;;;;;;;;;;;;-3.03;93.33;92258.19;1065564;55;20157;-83
2020/12/03 02:46:01;;;;;;;;;;;;;;;-2.99;93.57;92261.62;1065437;55;20239;-82
2020/12/03 02:47:01;;;;;;;;;;;;;;;-2.93;92.39;92264.72;1065483;55;20625;-83
2020/12/03 02:48:02;;;;;;;;;;;;;;;-2.99;92.68;92266.84;1063349;55;20190;-82
2020/12/03 02:49:03;;;;;;;;;;;;;;;-2.95;92.76;92264.28;1063399;55;20173;-83
2020/12/03 02:50:04;;;;;;;;;;;;;;;-2.96;92.59;92260.16;1064494;55;20232;-82
2020/12/03 02:51:05;;;;;;;;;;;;;;;-2.99;92.61;92253.78;1065445;55;20172;-82
2020/12/03 02:52:05;;;;;;;;;;;;;;;-2.99;93.63;92255.63;1063475;55;20575;-82
2020/12/03 02:53:06;;;;;;;;;;;;;;;-2.91;92.65;92250.16;1065497;55;20235;-83
2020/12/03 02:54:07;;;;;;;;;;;;;;;-2.94;92.65;92255.34;1063353;55;20181;-82
2020/12/03 02:55:08;;;;;;;;;;;;;;;-2.90;92.39;92256.87;1064635;55;20262;-82
2020/12/03 02:56:10;;;;;;;;;;;;;;;-2.89;91.43;92252.44;1065550;55;20176;-83
2020/12/03 02:57:11;;;;;;;;;;;;;;;-2.86;91.80;92254.31;1063454;55;20185;-82
2020/12/03 02:58:12;;;;;;;;;;;;;;;-2.92;92.18;92253.12;1063447;55;20165;-82
2020/12/03 02:59:12;;;;;;;;;;;;;;;-2.89;93.44;92257.66;1063078;55;20176;-83
2020/12/03 03:00:13;;;;;;;;;;;;;;;-3.02;92.06;92254.50;1062588;55;20263;-83
2020/12/03 03:01:13;;;;;;;;;;;;;;;-3.02;92.03;92256.34;1061270;56;20159;-83
2020/12/03 03:02:14;;;;;;;;;;;;;;;-3.02;93.07;92251.88;1065440;55;20166;-84
2020/12/03 03:03:15;;;;;;;;;;;;;;;-2.99;92.66;92251.16;1065404;55;20165;-84
2020/12/03 03:04:15;;;;;;;;;;;;;;;-3.00;93.03;92248.91;1067683;55;20169;-81
2020/12/03 03:05:16;;;;;;;;;;;;;;;-2.96;93.17;92244.50;1065562;55;20168;-81
2020/12/03 03:06:17;;;;;;;;;;;;;;;-3.01;92.73;92242.19;1065590;55;20161;-83
2020/12/03 03:07:18;;;;;;;;;;;;;;;-3.04;93.04;92241.75;1065429;55;20196;-83
2020/12/03 03:08:19;;;;;;;;;;;;;;;-2.94;92.04;92245.66;1065554;55;20780;-82
2020/12/03 03:09:21;;;;;;;;;;;;;;;-2.93;92.23;92246.41;1065492;55;20173;-82
2020/12/03 03:10:22;;;;;;;;;;;;;;;-2.86;92.65;92249.09;1063330;55;20574;-84
2020/12/03 03:11:22;;;;;;;;;;;;;;;-2.80;91.84;92255.56;1065436;55;20166;-82
2020/12/03 03:12:23;;;;;;;;;;;;;;;-2.75;90.86;92247.41;1065457;55;20184;-83
2020/12/03 03:13:24;;;;;;;;;;;;;;;-2.87;91.25;92252.81;1063225;55;20158;-82
2020/12/03 03:14:24;;;;;;;;;;;;;;;-2.84;92.02;92252.88;1063218;55;20172;-83
2020/12/03 03:15:25;;;;;;;;;;;;;;;-2.84;91.98;92252.13;1063390;55;20189;-84
2020/12/03 03:16:26;;;;;;;;;;;;;;;-2.88;92.59;92249.47;1061301;56;20185;-83
2020/12/03 03:17:27;;;;;;;;;;;;;;;-2.94;92.97;92250.09;1065423;55;20158;-84
2020/12/03 03:18:27;;;;;;;;;;;;;;;-2.86;93.25;92246.50;1065475;55;20226;-82
2020/12/03 03:19:28;;;;;;;;;;;;;;;-2.86;92.42;92236.78;1063351;55;20225;-83
2020/12/03 03:20:28;;;;;;;;;;;;;;;-2.90;92.10;92238.59;1067763;55;20245;-84
2020/12/03 03:21:29;;;;;;;;;;;;;;;-2.91;92.32;92239.69;1067750;55;20189;-83
2020/12/03 03:22:29;;;;;;;;;;;;;;;-2.85;91.63;92243.53;1065435;55;20154;-83
2020/12/03 03:23:30;;;;;;;;;;;;;;;-2.76;91.42;92247.75;1063216;55;20154;-82
2020/12/03 03:24:30;;;;;;;;;;;;;;;-2.65;92.42;92252.00;1063285;55;20162;-83
2020/12/03 03:25:31;;;;;;;;;;;;;;;-2.79;92.55;92249.22;1065434;55;20173;-82
2020/12/03 03:26:32;;;;;;;;;;;;;;;-2.81;92.38;92246.97;1067703;55;20262;-85
2020/12/03 03:27:32;;;;;;;;;;;;;;;-2.78;91.98;92253.31;1065327;55;20192;-82
2020/12/03 03:28:32;;;;;;;;;;;;;;;-2.76;91.25;92258.97;1067728;55;20162;-81
2020/12/03 03:29:33;;;;;;;;;;;;;;;-2.78;91.79;92245.47;1067783;55;20188;-82
2020/12/03 03:30:33;;;;;;;;;;;;;;;-2.74;92.08;92250.75;1069861;55;20157;-82
2020/12/03 03:31:34;;;;;;;;;;;;;;;-2.69;92.89;92255.69;1065503;55;20149;-82
2020/12/03 03:32:34;;;;;;;;;;;;;;;-2.86;91.26;92249.09;1063434;55;20166;-83
2020/12/03 03:33:35;;;;;;;;;;;;;;;-2.79;92.37;92254.44;1065591;55;20174;-81
2020/12/03 03:34:35;;;;;;;;;;;;;;;-2.79;91.94;92251.81;1067663;55;20563;-84
2020/12/03 03:35:36;;;;;;;;;;;;;;;-2.78;92.27;92248.84;1067507;55;20165;-82
2020/12/03 03:36:37;;;;;;;;;;;;;;;-2.84;91.87;92244.28;1063441;55;20185;-83
2020/12/03 03:37:37;;;;;;;;;;;;;;;-2.83;91.69;92254.38;1061248;56;20181;-83
2020/12/03 03:38:38;;;;;;;;;;;;;;;-2.81;91.99;92246.19;1065545;55;20165;-83
2020/12/03 03:39:39;;;;;;;;;;;;;;;-2.87;91.42;92240.50;1067630;55;20176;-83
2020/12/03 03:40:40;;;;;;;;;;;;;;;-2.88;92.08;92244.22;1063298;55;20664;-83
2020/12/03 03:41:40;;;;;;;;;;;;;;;-2.82;91.58;92245.44;1063323;55;20255;-83
2020/12/03 03:42:41;;;;;;;;;;;;;;;-2.72;91.40;92243.31;1063268;55;20177;-84
2020/12/03 03:43:42;;;;;;;;;;;;;;;-2.72;90.87;92244.09;1063256;55;20582;-82
2020/12/03 03:44:42;;;;;;;;;;;;;;;-2.72;91.66;92243.31;1063329;55;20157;-85
2020/12/03 03:45:43;;;;;;;;;;;;;;;-2.63;92.27;92236.72;1065466;55;20173;-85
2020/12/03 03:46:43;;;;;;;;;;;;;;;-2.62;90.90;92240.09;1065494;55;20154;-83
2020/12/03 03:47:44;;;;;;;;;;;;;;;-2.73;91.19;92237.31;1065372;55;20185;-83
2020/12/03 03:48:44;;;;;;;;;;;;;;;-2.71;91.30;92235.13;1063285;56;20267;-84
2020/12/03 03:49:45;;;;;;;;;;;;;;;-2.69;91.03;92237.38;1063517;56;20165;-82
2020/12/03 03:50:45;;;;;;;;;;;;;;;-2.69;91.65;92229.53;1063437;56;20272;-83
2020/12/03 03:51:46;;;;;;;;;;;;;;;-2.76;91.35;92222.38;1063496;56;20297;-83
2020/12/03 03:52:46;;;;;;;;;;;;;;;-2.70;92.73;92225.41;1063316;56;20174;-83
2020/12/03 03:53:47;;;;;;;;;;;;;;;-2.70;92.02;92228.78;1063882;55;20255;-83
2020/12/03 03:54:47;;;;;;;;;;;;;;;-2.69;91.97;92229.53;1063388;56;20146;-87
2020/12/03 03:55:48;;;;;;;;;;;;;;;-2.68;91.14;92223.94;1063549;56;20185;-83
2020/12/03 03:56:48;;;;;;;;;;;;;;;-2.69;91.34;92222.44;1065581;55;20158;-82
2020/12/03 03:57:49;;;;;;;;;;;;;;;-2.71;91.71;92224.66;1067646;55;20633;-83
2020/12/03 03:58:50;;;;;;;;;;;;;;;-2.74;91.96;92227.97;1062768;56;20236;-83
2020/12/03 03:59:51;;;;;;;;;;;;;;;-2.71;92.67;92227.28;1062904;55;20209;-84
2020/12/03 04:00:51;;;;;;;;;;;;;;;-2.85;92.61;92222.62;1065447;55;20154;-83
2020/12/03 04:01:52;;;;;;;;;;;;;;;-2.86;93.12;92221.09;1063333;56;20154;-82
2020/12/03 04:02:52;;;;;;;;;;;;;;;-2.83;93.21;92222.25;1065516;55;20188;-83
2020/12/03 04:03:53;;;;;;;;;;;;;;;-2.82;93.51;92229.00;1067614;55;21133;-82
2020/12/03 04:04:53;;;;;;;;;;;;;;;-2.70;92.41;92228.78;1065309;55;20730;-82
2020/12/03 04:05:54;;;;;;;;;;;;;;;-2.57;91.89;92230.06;1065340;55;20197;-84
2020/12/03 04:06:55;;;;;;;;;;;;;;;-2.75;91.70;92231.72;1063203;55;20409;-83
2020/12/03 04:07:55;;;;;;;;;;;;;;;-2.74;92.01;92230.59;1063309;56;20214;-83
2020/12/03 04:08:56;;;;;;;;;;;;;;;-2.71;91.78;92222.06;1063386;56;20185;-83
2020/12/03 04:09:56;;;;;;;;;;;;;;;-2.81;92.89;92226.03;1063279;56;20157;-81
2020/12/03 04:10:57;;;;;;;;;;;;;;;-2.84;93.67;92220.75;1065517;55;20679;-82
2020/12/03 04:11:57;;;;;;;;;;;;;;;-2.66;92.79;92213.88;1063349;55;20218;-82
2020/12/03 04:12:58;;;;;;;;;;;;;;;-2.68;92.24;92212.72;1063302;56;20559;-83
2020/12/03 04:13:59;;;;;;;;;;;;;;;-2.79;91.46;92220.44;1065477;55;20185;-83
2020/12/03 04:15:00;;;;;;;;;;;;;;;-2.66;91.46;92208.66;1067676;55;20161;-83
2020/12/03 04:16:00;;;;;;;;;;;;;;;-2.61;91.97;92212.81;1067538;55;20168;-85
2020/12/03 04:17:01;;;;;;;;;;;;;;;-2.60;91.78;92204.63;1063151;56;20670;-84
2020/12/03 04:18:02;;;;;;;;;;;;;;;-2.68;92.31;92212.72;1065413;55;20165;-83
2020/12/03 04:19:03;;;;;;;;;;;;;;;-2.66;92.71;92208.66;1065346;55;20181;-84
2020/12/03 04:20:05;;;;;;;;;;;;;;;-2.62;91.50;92201.63;1063317;56;20699;-83
2020/12/03 04:21:06;;;;;;;;;;;;;;;-2.57;92.64;92197.94;1065548;55;20157;-83
2020/12/03 04:22:07;;;;;;;;;;;;;;;-2.74;92.03;92198.47;1063354;55;20214;-83
2020/12/03 04:23:07;;;;;;;;;;;;;;;-2.75;93.13;92210.78;1063229;56;20193;-83
2020/12/03 04:24:08;;;;;;;;;;;;;;;-2.73;93.34;92198.09;1065473;55;20157;-83
2020/12/03 04:25:09;;;;;;;;;;;;;;;-2.74;92.67;92199.22;1063244;55;20192;-84
2020/12/03 04:26:10;;;;;;;;;;;;;;;-2.65;92.12;92197.09;1063280;56;20280;-82
2020/12/03 04:27:10;;;;;;;;;;;;;;;-2.69;92.01;92204.13;1065225;55;20161;-83
2020/12/03 04:28:13;;;;;;;;;;;;;;;-2.68;92.59;92202.25;1065388;55;20189;-82
2020/12/03 04:29:15;;;;;;;;;;;;;;;-2.68;92.38;92203.00;1065610;55;20188;-83
2020/12/03 04:30:15;;;;;;;;;;;;;;;-2.62;92.99;92196.37;1065324;55;20176;-82
2020/12/03 04:31:17;;;;;;;;;;;;;;;-2.68;93.02;92199.66;1065386;55;20154;-82
2020/12/03 04:32:17;;;;;;;;;;;;;;;-2.67;92.45;92194.09;1065377;55;20255;-83
2020/12/03 04:33:18;;;;;;;;;;;;;;;-2.71;93.17;92201.13;1065450;55;20157;-83
2020/12/03 04:34:18;;;;;;;;;;;;;;;-2.71;93.69;92197.75;1069756;55;20235;-81
2020/12/03 04:35:19;;;;;;;;;;;;;;;-2.61;92.88;92191.91;1065417;55;20189;-83
2020/12/03 04:36:20;;;;;;;;;;;;;;;-2.63;93.03;92200.12;1063557;55;20162;-82
2020/12/03 04:37:20;;;;;;;;;;;;;;;-2.62;91.65;92185.91;1063643;55;20181;-83
2020/12/03 04:38:21;;;;;;;;;;;;;;;-2.62;91.80;92195.63;1065791;55;20177;-82
2020/12/03 04:39:22;;;;;;;;;;;;;;;-2.61;92.32;92195.28;1063499;55;20627;-83
2020/12/03 04:40:43;;;;;;;;;;;;;;;-2.68;92.47;92195.16;1063703;55;20638;-85
2020/12/03 04:41:43;;;;;;;;;;;;;;;-2.65;92.68;92196.34;1063049;55;20189;-82
2020/12/03 04:42:44;;;;;;;;;;;;;;;-2.67;92.93;92206.41;1065982;55;20597;-82
2020/12/03 04:43:51;;;;;;;;;;;;;;;-2.55;92.10;92200.94;1063574;55;20177;-83
2020/12/03 04:44:53;;;;;;;;;;;;;;;-2.71;91.66;92201.13;1060521;55;20174;-82
2020/12/03 04:46:04;;;;;;;;;;;;;;;-2.68;92.34;92205.63;1063695;55;20610;-82
2020/12/03 04:47:25;;;;;;;;;;;;;;;-2.67;92.83;92204.53;1066091;55;20183;-83
2020/12/03 04:48:28;;;;;;;;;;;;;;;-2.63;92.85;92205.34;1063469;55;20717;-82
2020/12/03 04:49:40;;;;;;;;;;;;;;;-2.65;92.42;92201.56;1068010;55;20157;-81
2020/12/03 04:50:50;;;;;;;;;;;;;;;-2.71;93.22;92203.00;1070135;55;20157;-82
2020/12/03 04:51:51;;;;;;;;;;;;;;;-2.67;93.64;92201.94;1065692;55;20661;-81
2020/12/03 04:52:54;;;;;;;;;;;;;;;-2.66;92.91;92198.19;1061519;56;20185;-83
2020/12/03 04:53:56;;;;;;;;;;;;;;;-2.62;92.58;92193.00;1061728;55;20696;-85
2020/12/03 04:55:17;;;;;;;;;;;;;;;-2.56;92.14;92202.78;1061624;55;20213;-82
2020/12/03 04:56:22;;;;;;;;;;;;;;;-2.56;91.53;92200.19;1064223;55;20184;-83
2020/12/03 04:57:25;;;;;;;;;;;;;;;-2.60;92.96;92202.00;1063331;55;20158;-83
2020/12/03 04:58:31;;;;;;;;;;;;;;;-2.65;92.76;92198.94;1063757;55;20185;-83
2020/12/03 04:59:38;;;;;;;;;;;;;;;-2.61;92.76;92191.91;1065490;55;20165;-81
2020/12/03 05:00:38;;;;;;;;;;;;;;;-2.66;92.19;92200.06;1061648;56;20166;-86
2020/12/03 05:01:41;;;;;;;;;;;;;;;-2.74;92.98;92188.75;1063666;55;20177;-82
2020/12/03 05:03:00;;;;;;;;;;;;;;;-2.61;92.08;92191.91;1063644;55;20614;-83
2020/12/03 05:04:03;;;;;;;;;;;;;;;-2.58;91.21;92196.44;1063612;55;21173;-83
2020/12/03 05:05:21;;;;;;;;;;;;;;;-2.61;91.38;92197.13;1065984;55;20229;-83
2020/12/03 05:06:30;;;;;;;;;;;;;;;-2.57;91.35;92197.94;1067918;55;20172;-82
2020/12/03 05:07:32;;;;;;;;;;;;;;;-2.52;90.83;92189.75;1066053;55;20258;-84
2020/12/03 05:08:38;;;;;;;;;;;;;;;-2.59;90.61;92200.91;1065731;55;21099;-83
2020/12/03 05:10:12;;;;;;;;;;;;;;;-2.59;92.02;92203.53;1068111;55;20209;-82
2020/12/03 05:11:24;;;;;;;;;;;;;;;-2.61;92.93;92192.66;1066606;55;20172;-84
2020/12/03 05:12:27;;;;;;;;;;;;;;;-2.61;92.71;92191.91;1069448;55;20208;-82
2020/12/03 05:13:29;;;;;;;;;;;;;;;-2.61;91.46;92195.28;1069784;55;20788;-83
2020/12/03 05:14:35;;;;;;;;;;;;;;;-2.68;91.49;92189.19;1063132;55;20178;-82
2020/12/03 05:15:36;;;;;;;;;;;;;;;-2.70;91.10;92188.81;1061404;55;20227;-82
2020/12/03 05:16:45;;;;;;;;;;;;;;;-2.64;91.90;92184.75;1061411;56;20639;-82
2020/12/03 05:17:47;;;;;;;;;;;;;;;-2.61;90.74;92179.56;1062357;55;20214;-84
2020/12/03 05:18:56;;;;;;;;;;;;;;;-2.62;90.90;92172.09;1063710;55;20594;-83
2020/12/03 05:20:00;;;;;;;;;;;;;;;-2.62;90.10;92180.69;1063840;55;20188;-83
2020/12/03 05:21:02;;;;;;;;;;;;;;;-2.69;91.04;92177.97;1063743;55;20176;-83
2020/12/03 05:22:09;;;;;;;;;;;;;;;-2.62;89.56;92177.31;1065864;55;20667;-82
2020/12/03 05:23:12;;;;;;;;;;;;;;;-2.65;89.90;92175.41;1064852;55;20197;-83